sensor_id;sensor_type;location;lat;lon;timestamp;P1;durP1;ratioP1;P2;durP2;ratioP2
23123;SDS011;11731;48.592;8.858;2023-08-08T00:01:09;2.80;;;2.23;;
23123;SDS011;11731;48.592;8.858;2023-08-08T00:03:36;2.23;;;1.63;;
23123;SDS011;11731;48.592;8.858;2023-08-08T00:06:02;2.67;;;1.77;;
23123;SDS011;11731;48.592;8.858;2023-08-08T00:08:29;1.60;;;1.50;;
23123;SDS011;11731;48.592;8.858;2023-08-08T00:10:56;2.03;;;1.67;;
23123;SDS011;11731;48.592;8.858;2023-08-08T00:13:24;1.50;;;1.40;;
23123;SDS011;11731;48.592;8.858;2023-08-08T00:15:51;2.50;;;1.77;;
23123;SDS011;11731;48.592;8.858;2023-08-08T00:18:18;2.53;;;1.63;;
23123;SDS011;11731;48.592;8.858;2023-08-08T00:20:45;2.93;;;1.60;;
23123;SDS011;11731;48.592;8.858;2023-08-08T00:23:11;2.17;;;1.73;;
23123;SDS011;11731;48.592;8.858;2023-08-08T00:25:38;2.57;;;2.37;;
23123;SDS011;11731;48.592;8.858;2023-08-08T00:28:05;2.23;;;1.70;;
23123;SDS011;11731;48.592;8.858;2023-08-08T00:30:33;1.63;;;1.53;;
23123;SDS011;11731;48.592;8.858;2023-08-08T00:33:00;2.33;;;1.97;;
23123;SDS011;11731;48.592;8.858;2023-08-08T00:35:26;2.27;;;1.83;;
23123;SDS011;11731;48.592;8.858;2023-08-08T00:37:53;1.90;;;1.53;;
23123;SDS011;11731;48.592;8.858;2023-08-08T00:40:19;3.00;;;1.97;;
23123;SDS011;11731;48.592;8.858;2023-08-08T00:42:46;1.60;;;1.40;;
23123;SDS011;11731;48.592;8.858;2023-08-08T00:45:13;2.97;;;1.80;;
23123;SDS011;11731;48.592;8.858;2023-08-08T00:47:41;2.30;;;1.60;;
23123;SDS011;11731;48.592;8.858;2023-08-08T00:50:08;4.10;;;1.77;;
23123;SDS011;11731;48.592;8.858;2023-08-08T00:52:36;1.70;;;1.60;;
23123;SDS011;11731;48.592;8.858;2023-08-08T00:55:04;6.97;;;1.70;;
23123;SDS011;11731;48.592;8.858;2023-08-08T00:57:33;1.53;;;1.43;;
23123;SDS011;11731;48.592;8.858;2023-08-08T01:00:03;3.13;;;1.83;;
23123;SDS011;11731;48.592;8.858;2023-08-08T01:02:31;4.07;;;1.60;;
23123;SDS011;11731;48.592;8.858;2023-08-08T01:04:59;1.97;;;1.60;;
23123;SDS011;11731;48.592;8.858;2023-08-08T01:07:29;2.27;;;1.83;;
23123;SDS011;11731;48.592;8.858;2023-08-08T01:10:02;3.87;;;2.10;;
23123;SDS011;11731;48.592;8.858;2023-08-08T01:12:33;1.67;;;1.57;;
23123;SDS011;11731;48.592;8.858;2023-08-08T01:15:03;3.00;;;1.70;;
23123;SDS011;11731;48.592;8.858;2023-08-08T01:17:32;2.33;;;1.50;;
23123;SDS011;11731;48.592;8.858;2023-08-08T01:20:02;2.40;;;1.60;;
23123;SDS011;11731;48.592;8.858;2023-08-08T01:22:32;2.87;;;1.80;;
23123;SDS011;11731;48.592;8.858;2023-08-08T01:25:04;3.07;;;1.70;;
23123;SDS011;11731;48.592;8.858;2023-08-08T01:27:32;4.30;;;1.70;;
23123;SDS011;11731;48.592;8.858;2023-08-08T01:29:59;1.97;;;1.70;;
23123;SDS011;11731;48.592;8.858;2023-08-08T01:32:26;2.17;;;1.93;;
23123;SDS011;11731;48.592;8.858;2023-08-08T01:34:53;1.83;;;1.60;;
23123;SDS011;11731;48.592;8.858;2023-08-08T01:37:20;2.23;;;1.70;;
23123;SDS011;11731;48.592;8.858;2023-08-08T01:39:52;2.27;;;1.67;;
23123;SDS011;11731;48.592;8.858;2023-08-08T01:42:22;4.03;;;1.80;;
23123;SDS011;11731;48.592;8.858;2023-08-08T01:44:50;2.60;;;1.70;;
23123;SDS011;11731;48.592;8.858;2023-08-08T01:47:18;3.07;;;2.23;;
23123;SDS011;11731;48.592;8.858;2023-08-08T01:49:45;5.77;;;2.30;;
23123;SDS011;11731;48.592;8.858;2023-08-08T01:52:12;2.43;;;1.87;;
23123;SDS011;11731;48.592;8.858;2023-08-08T01:54:39;3.00;;;2.03;;
23123;SDS011;11731;48.592;8.858;2023-08-08T01:57:07;2.93;;;2.53;;
23123;SDS011;11731;48.592;8.858;2023-08-08T01:59:35;3.60;;;2.10;;
23123;SDS011;11731;48.592;8.858;2023-08-08T02:02:02;2.07;;;1.83;;
23123;SDS011;11731;48.592;8.858;2023-08-08T02:04:29;2.50;;;1.90;;
23123;SDS011;11731;48.592;8.858;2023-08-08T02:06:56;3.73;;;2.10;;
23123;SDS011;11731;48.592;8.858;2023-08-08T02:09:22;2.77;;;2.13;;
23123;SDS011;11731;48.592;8.858;2023-08-08T02:11:49;4.50;;;2.00;;
23123;SDS011;11731;48.592;8.858;2023-08-08T02:14:16;2.17;;;1.70;;
23123;SDS011;11731;48.592;8.858;2023-08-08T02:16:44;2.03;;;1.83;;
23123;SDS011;11731;48.592;8.858;2023-08-08T02:19:11;2.70;;;2.10;;
23123;SDS011;11731;48.592;8.858;2023-08-08T02:21:38;1.73;;;1.63;;
23123;SDS011;11731;48.592;8.858;2023-08-08T02:24:04;2.87;;;2.17;;
23123;SDS011;11731;48.592;8.858;2023-08-08T02:26:31;2.20;;;1.63;;
23123;SDS011;11731;48.592;8.858;2023-08-08T02:28:58;1.97;;;1.73;;
23123;SDS011;11731;48.592;8.858;2023-08-08T02:31:25;3.97;;;2.00;;
23123;SDS011;11731;48.592;8.858;2023-08-08T02:33:53;2.10;;;1.90;;
23123;SDS011;11731;48.592;8.858;2023-08-08T02:36:20;2.03;;;1.83;;
23123;SDS011;11731;48.592;8.858;2023-08-08T02:38:47;3.70;;;2.10;;
23123;SDS011;11731;48.592;8.858;2023-08-08T02:41:14;4.37;;;1.93;;
23123;SDS011;11731;48.592;8.858;2023-08-08T02:43:41;1.80;;;1.57;;
23123;SDS011;11731;48.592;8.858;2023-08-08T02:46:08;1.50;;;1.40;;
23123;SDS011;11731;48.592;8.858;2023-08-08T02:48:35;5.57;;;1.77;;
23123;SDS011;11731;48.592;8.858;2023-08-08T02:51:03;2.23;;;1.70;;
23123;SDS011;11731;48.592;8.858;2023-08-08T02:53:30;1.70;;;1.60;;
23123;SDS011;11731;48.592;8.858;2023-08-08T02:55:56;2.20;;;1.90;;
23123;SDS011;11731;48.592;8.858;2023-08-08T02:58:23;4.13;;;1.80;;
23123;SDS011;11731;48.592;8.858;2023-08-08T03:00:50;5.03;;;1.80;;
23123;SDS011;11731;48.592;8.858;2023-08-08T03:03:17;2.13;;;1.93;;
23123;SDS011;11731;48.592;8.858;2023-08-08T03:05:44;2.37;;;1.90;;
23123;SDS011;11731;48.592;8.858;2023-08-08T03:08:12;2.97;;;1.53;;
23123;SDS011;11731;48.592;8.858;2023-08-08T03:10:39;2.00;;;1.70;;
23123;SDS011;11731;48.592;8.858;2023-08-08T03:13:06;2.60;;;1.63;;
23123;SDS011;11731;48.592;8.858;2023-08-08T03:15:33;2.63;;;1.60;;
23123;SDS011;11731;48.592;8.858;2023-08-08T03:18:01;1.67;;;1.47;;
23123;SDS011;11731;48.592;8.858;2023-08-08T03:20:28;2.93;;;1.70;;
23123;SDS011;11731;48.592;8.858;2023-08-08T03:22:55;3.13;;;1.90;;
23123;SDS011;11731;48.592;8.858;2023-08-08T03:25:23;2.73;;;1.70;;
23123;SDS011;11731;48.592;8.858;2023-08-08T03:27:50;2.87;;;1.70;;
23123;SDS011;11731;48.592;8.858;2023-08-08T03:30:16;2.77;;;1.90;;
23123;SDS011;11731;48.592;8.858;2023-08-08T03:32:43;2.23;;;1.53;;
23123;SDS011;11731;48.592;8.858;2023-08-08T03:35:10;2.20;;;1.90;;
23123;SDS011;11731;48.592;8.858;2023-08-08T03:37:37;4.30;;;2.07;;
23123;SDS011;11731;48.592;8.858;2023-08-08T03:40:04;1.70;;;1.60;;
23123;SDS011;11731;48.592;8.858;2023-08-08T03:42:34;1.90;;;1.70;;
23123;SDS011;11731;48.592;8.858;2023-08-08T03:45:01;2.13;;;1.93;;
23123;SDS011;11731;48.592;8.858;2023-08-08T03:47:28;2.17;;;1.60;;
23123;SDS011;11731;48.592;8.858;2023-08-08T03:49:55;2.77;;;1.90;;
23123;SDS011;11731;48.592;8.858;2023-08-08T03:52:22;3.37;;;2.40;;
23123;SDS011;11731;48.592;8.858;2023-08-08T03:54:49;2.30;;;2.10;;
23123;SDS011;11731;48.592;8.858;2023-08-08T03:57:16;2.70;;;2.17;;
23123;SDS011;11731;48.592;8.858;2023-08-08T03:59:44;1.70;;;1.60;;
23123;SDS011;11731;48.592;8.858;2023-08-08T04:02:10;2.17;;;1.80;;
23123;SDS011;11731;48.592;8.858;2023-08-08T04:04:37;2.10;;;1.73;;
23123;SDS011;11731;48.592;8.858;2023-08-08T04:07:04;2.43;;;2.07;;
23123;SDS011;11731;48.592;8.858;2023-08-08T04:09:31;3.07;;;1.73;;
23123;SDS011;11731;48.592;8.858;2023-08-08T04:11:58;3.53;;;2.00;;
23123;SDS011;11731;48.592;8.858;2023-08-08T04:14:25;2.53;;;2.00;;
23123;SDS011;11731;48.592;8.858;2023-08-08T04:16:53;1.87;;;1.60;;
23123;SDS011;11731;48.592;8.858;2023-08-08T04:19:20;3.57;;;1.60;;
23123;SDS011;11731;48.592;8.858;2023-08-08T04:21:48;3.20;;;1.90;;
23123;SDS011;11731;48.592;8.858;2023-08-08T04:24:14;2.17;;;1.90;;
23123;SDS011;11731;48.592;8.858;2023-08-08T04:26:41;3.47;;;1.90;;
23123;SDS011;11731;48.592;8.858;2023-08-08T04:29:08;3.00;;;1.87;;
23123;SDS011;11731;48.592;8.858;2023-08-08T04:31:35;6.03;;;2.13;;
23123;SDS011;11731;48.592;8.858;2023-08-08T04:34:03;2.53;;;2.10;;
23123;SDS011;11731;48.592;8.858;2023-08-08T04:36:30;2.03;;;1.80;;
23123;SDS011;11731;48.592;8.858;2023-08-08T04:38:57;2.17;;;1.90;;
23123;SDS011;11731;48.592;8.858;2023-08-08T04:41:23;4.93;;;2.10;;
23123;SDS011;11731;48.592;8.858;2023-08-08T04:43:50;2.70;;;2.27;;
23123;SDS011;11731;48.592;8.858;2023-08-08T04:46:17;1.90;;;1.80;;
23123;SDS011;11731;48.592;8.858;2023-08-08T04:48:44;4.53;;;1.97;;
23123;SDS011;11731;48.592;8.858;2023-08-08T04:51:12;4.40;;;2.00;;
23123;SDS011;11731;48.592;8.858;2023-08-08T04:53:39;3.03;;;2.23;;
23123;SDS011;11731;48.592;8.858;2023-08-08T04:56:06;5.70;;;2.30;;
23123;SDS011;11731;48.592;8.858;2023-08-08T04:58:32;3.63;;;2.00;;
23123;SDS011;11731;48.592;8.858;2023-08-08T05:00:59;4.53;;;2.47;;
23123;SDS011;11731;48.592;8.858;2023-08-08T05:03:26;3.47;;;2.30;;
23123;SDS011;11731;48.592;8.858;2023-08-08T05:05:53;3.03;;;2.40;;
23123;SDS011;11731;48.592;8.858;2023-08-08T05:08:21;2.67;;;1.87;;
23123;SDS011;11731;48.592;8.858;2023-08-08T05:10:47;2.47;;;2.17;;
23123;SDS011;11731;48.592;8.858;2023-08-08T05:13:14;2.27;;;1.97;;
23123;SDS011;11731;48.592;8.858;2023-08-08T05:15:41;2.20;;;2.00;;
23123;SDS011;11731;48.592;8.858;2023-08-08T05:18:08;3.23;;;2.17;;
23123;SDS011;11731;48.592;8.858;2023-08-08T05:20:34;4.63;;;2.13;;
23123;SDS011;11731;48.592;8.858;2023-08-08T05:23:01;4.27;;;2.00;;
23123;SDS011;11731;48.592;8.858;2023-08-08T05:25:29;4.63;;;2.10;;
23123;SDS011;11731;48.592;8.858;2023-08-08T05:27:56;4.10;;;2.20;;
23123;SDS011;11731;48.592;8.858;2023-08-08T05:30:23;3.77;;;2.10;;
23123;SDS011;11731;48.592;8.858;2023-08-08T05:32:50;2.07;;;1.60;;
23123;SDS011;11731;48.592;8.858;2023-08-08T05:35:17;3.40;;;1.87;;
23123;SDS011;11731;48.592;8.858;2023-08-08T05:37:43;2.90;;;1.60;;
23123;SDS011;11731;48.592;8.858;2023-08-08T05:40:10;1.80;;;1.60;;
23123;SDS011;11731;48.592;8.858;2023-08-08T05:42:39;1.93;;;1.70;;
23123;SDS011;11731;48.592;8.858;2023-08-08T05:45:06;2.17;;;1.80;;
23123;SDS011;11731;48.592;8.858;2023-08-08T05:47:34;4.60;;;2.00;;
23123;SDS011;11731;48.592;8.858;2023-08-08T05:50:01;4.23;;;2.37;;
23123;SDS011;11731;48.592;8.858;2023-08-08T05:52:28;2.23;;;2.03;;
23123;SDS011;11731;48.592;8.858;2023-08-08T05:54:55;2.50;;;1.70;;
23123;SDS011;11731;48.592;8.858;2023-08-08T05:57:24;5.33;;;1.97;;
23123;SDS011;11731;48.592;8.858;2023-08-08T05:59:52;3.43;;;1.70;;
23123;SDS011;11731;48.592;8.858;2023-08-08T06:02:19;1.90;;;1.77;;
23123;SDS011;11731;48.592;8.858;2023-08-08T06:04:45;2.50;;;1.70;;
23123;SDS011;11731;48.592;8.858;2023-08-08T06:07:12;2.60;;;1.67;;
23123;SDS011;11731;48.592;8.858;2023-08-08T06:09:39;3.93;;;1.80;;
23123;SDS011;11731;48.592;8.858;2023-08-08T06:12:06;1.67;;;1.57;;
23123;SDS011;11731;48.592;8.858;2023-08-08T06:14:34;6.00;;;1.40;;
23123;SDS011;11731;48.592;8.858;2023-08-08T06:17:02;2.57;;;1.40;;
23123;SDS011;11731;48.592;8.858;2023-08-08T06:19:30;1.90;;;1.70;;
23123;SDS011;11731;48.592;8.858;2023-08-08T06:21:57;2.80;;;1.60;;
23123;SDS011;11731;48.592;8.858;2023-08-08T06:24:24;2.23;;;1.80;;
23123;SDS011;11731;48.592;8.858;2023-08-08T06:26:51;5.80;;;1.50;;
23123;SDS011;11731;48.592;8.858;2023-08-08T06:29:17;5.97;;;1.50;;
23123;SDS011;11731;48.592;8.858;2023-08-08T06:31:44;3.57;;;1.60;;
23123;SDS011;11731;48.592;8.858;2023-08-08T06:34:12;1.53;;;1.40;;
23123;SDS011;11731;48.592;8.858;2023-08-08T06:36:40;2.97;;;1.20;;
23123;SDS011;11731;48.592;8.858;2023-08-08T06:39:07;2.60;;;1.30;;
23123;SDS011;11731;48.592;8.858;2023-08-08T06:41:34;2.63;;;1.60;;
23123;SDS011;11731;48.592;8.858;2023-08-08T06:44:01;1.80;;;1.40;;
23123;SDS011;11731;48.592;8.858;2023-08-08T06:46:27;1.10;;;1.00;;
23123;SDS011;11731;48.592;8.858;2023-08-08T06:48:55;4.97;;;1.43;;
23123;SDS011;11731;48.592;8.858;2023-08-08T06:51:25;5.60;;;1.70;;
23123;SDS011;11731;48.592;8.858;2023-08-08T06:53:52;2.43;;;1.40;;
23123;SDS011;11731;48.592;8.858;2023-08-08T06:56:19;3.67;;;1.60;;
23123;SDS011;11731;48.592;8.858;2023-08-08T06:58:46;1.57;;;1.20;;
23123;SDS011;11731;48.592;8.858;2023-08-08T07:01:13;1.20;;;1.10;;
23123;SDS011;11731;48.592;8.858;2023-08-08T07:03:40;3.10;;;1.20;;
23123;SDS011;11731;48.592;8.858;2023-08-08T07:06:06;2.40;;;1.50;;
23123;SDS011;11731;48.592;8.858;2023-08-08T07:08:35;2.13;;;1.40;;
23123;SDS011;11731;48.592;8.858;2023-08-08T07:11:04;1.33;;;1.20;;
23123;SDS011;11731;48.592;8.858;2023-08-08T07:13:32;1.13;;;1.03;;
23123;SDS011;11731;48.592;8.858;2023-08-08T07:15:58;3.37;;;1.30;;
23123;SDS011;11731;48.592;8.858;2023-08-08T07:18:25;1.77;;;1.07;;
23123;SDS011;11731;48.592;8.858;2023-08-08T07:20:52;2.37;;;1.30;;
23123;SDS011;11731;48.592;8.858;2023-08-08T07:23:19;3.47;;;1.50;;
23123;SDS011;11731;48.592;8.858;2023-08-08T07:25:47;1.47;;;1.37;;
23123;SDS011;11731;48.592;8.858;2023-08-08T07:28:14;1.80;;;1.20;;
23123;SDS011;11731;48.592;8.858;2023-08-08T07:30:41;2.73;;;1.60;;
23123;SDS011;11731;48.592;8.858;2023-08-08T07:33:08;6.70;;;1.53;;
23123;SDS011;11731;48.592;8.858;2023-08-08T07:35:35;3.37;;;1.33;;
23123;SDS011;11731;48.592;8.858;2023-08-08T07:38:02;2.27;;;1.67;;
23123;SDS011;11731;48.592;8.858;2023-08-08T07:40:29;4.60;;;1.37;;
23123;SDS011;11731;48.592;8.858;2023-08-08T07:42:57;2.67;;;1.63;;
23123;SDS011;11731;48.592;8.858;2023-08-08T07:45:24;2.43;;;1.40;;
23123;SDS011;11731;48.592;8.858;2023-08-08T07:47:51;4.17;;;1.70;;
23123;SDS011;11731;48.592;8.858;2023-08-08T07:50:18;1.97;;;1.30;;
23123;SDS011;11731;48.592;8.858;2023-08-08T07:52:44;3.03;;;1.17;;
23123;SDS011;11731;48.592;8.858;2023-08-08T07:55:11;2.40;;;1.30;;
23123;SDS011;11731;48.592;8.858;2023-08-08T07:57:38;2.30;;;1.20;;
23123;SDS011;11731;48.592;8.858;2023-08-08T08:00:07;2.10;;;1.07;;
23123;SDS011;11731;48.592;8.858;2023-08-08T08:02:37;2.03;;;1.63;;
23123;SDS011;11731;48.592;8.858;2023-08-08T08:05:04;2.10;;;1.67;;
23123;SDS011;11731;48.592;8.858;2023-08-08T08:07:33;3.17;;;1.43;;
23123;SDS011;11731;48.592;8.858;2023-08-08T08:10:00;2.57;;;1.40;;
23123;SDS011;11731;48.592;8.858;2023-08-08T08:12:27;1.50;;;1.40;;
23123;SDS011;11731;48.592;8.858;2023-08-08T08:14:55;1.53;;;1.13;;
23123;SDS011;11731;48.592;8.858;2023-08-08T08:17:23;1.60;;;1.23;;
23123;SDS011;11731;48.592;8.858;2023-08-08T08:19:52;1.90;;;1.10;;
23123;SDS011;11731;48.592;8.858;2023-08-08T08:22:19;3.20;;;1.40;;
23123;SDS011;11731;48.592;8.858;2023-08-08T08:24:46;1.40;;;1.20;;
23123;SDS011;11731;48.592;8.858;2023-08-08T08:27:13;1.63;;;1.30;;
23123;SDS011;11731;48.592;8.858;2023-08-08T08:29:40;1.43;;;1.20;;
23123;SDS011;11731;48.592;8.858;2023-08-08T08:32:06;2.30;;;1.40;;
23123;SDS011;11731;48.592;8.858;2023-08-08T08:34:35;3.13;;;1.47;;
23123;SDS011;11731;48.592;8.858;2023-08-08T08:37:02;2.27;;;1.30;;
23123;SDS011;11731;48.592;8.858;2023-08-08T08:39:29;1.23;;;1.10;;
23123;SDS011;11731;48.592;8.858;2023-08-08T08:41:57;1.63;;;1.03;;
23123;SDS011;11731;48.592;8.858;2023-08-08T08:44:28;1.93;;;1.13;;
23123;SDS011;11731;48.592;8.858;2023-08-08T08:46:57;2.07;;;1.30;;
23123;SDS011;11731;48.592;8.858;2023-08-08T08:49:28;3.60;;;1.30;;
23123;SDS011;11731;48.592;8.858;2023-08-08T08:51:59;1.83;;;1.47;;
23123;SDS011;11731;48.592;8.858;2023-08-08T08:54:26;2.07;;;1.20;;
23123;SDS011;11731;48.592;8.858;2023-08-08T08:56:55;2.63;;;1.10;;
23123;SDS011;11731;48.592;8.858;2023-08-08T08:59:22;1.90;;;1.30;;
23123;SDS011;11731;48.592;8.858;2023-08-08T09:01:49;3.97;;;1.33;;
23123;SDS011;11731;48.592;8.858;2023-08-08T09:04:18;3.27;;;1.20;;
23123;SDS011;11731;48.592;8.858;2023-08-08T09:06:46;1.90;;;1.30;;
23123;SDS011;11731;48.592;8.858;2023-08-08T09:09:15;1.87;;;1.43;;
23123;SDS011;11731;48.592;8.858;2023-08-08T09:11:44;1.63;;;1.20;;
23123;SDS011;11731;48.592;8.858;2023-08-08T09:14:16;1.60;;;1.23;;
23123;SDS011;11731;48.592;8.858;2023-08-08T09:16:45;1.67;;;1.30;;
23123;SDS011;11731;48.592;8.858;2023-08-08T09:19:12;2.03;;;1.30;;
23123;SDS011;11731;48.592;8.858;2023-08-08T09:21:39;1.13;;;1.03;;
23123;SDS011;11731;48.592;8.858;2023-08-08T09:24:06;3.80;;;1.60;;
23123;SDS011;11731;48.592;8.858;2023-08-08T09:26:35;1.83;;;1.60;;
23123;SDS011;11731;48.592;8.858;2023-08-08T09:29:02;5.03;;;2.17;;
23123;SDS011;11731;48.592;8.858;2023-08-08T09:31:29;2.53;;;1.30;;
23123;SDS011;11731;48.592;8.858;2023-08-08T09:33:56;3.77;;;1.60;;
23123;SDS011;11731;48.592;8.858;2023-08-08T09:36:24;2.93;;;1.63;;
23123;SDS011;11731;48.592;8.858;2023-08-08T09:38:51;1.63;;;1.20;;
23123;SDS011;11731;48.592;8.858;2023-08-08T09:41:18;1.50;;;1.03;;
23123;SDS011;11731;48.592;8.858;2023-08-08T09:43:48;1.40;;;1.30;;
23123;SDS011;11731;48.592;8.858;2023-08-08T09:46:15;1.43;;;1.33;;
23123;SDS011;11731;48.592;8.858;2023-08-08T09:48:42;1.97;;;1.50;;
23123;SDS011;11731;48.592;8.858;2023-08-08T09:51:10;1.43;;;1.33;;
23123;SDS011;11731;48.592;8.858;2023-08-08T09:53:37;3.40;;;1.33;;
23123;SDS011;11731;48.592;8.858;2023-08-08T09:56:05;2.13;;;1.40;;
23123;SDS011;11731;48.592;8.858;2023-08-08T09:58:32;1.23;;;1.13;;
23123;SDS011;11731;48.592;8.858;2023-08-08T10:01:01;1.73;;;1.40;;
23123;SDS011;11731;48.592;8.858;2023-08-08T10:03:29;1.07;;;0.97;;
23123;SDS011;11731;48.592;8.858;2023-08-08T10:05:58;2.20;;;1.17;;
23123;SDS011;11731;48.592;8.858;2023-08-08T10:08:25;3.67;;;1.17;;
23123;SDS011;11731;48.592;8.858;2023-08-08T10:10:52;1.10;;;1.00;;
23123;SDS011;11731;48.592;8.858;2023-08-08T10:13:19;2.27;;;1.23;;
23123;SDS011;11731;48.592;8.858;2023-08-08T10:15:47;1.57;;;1.17;;
23123;SDS011;11731;48.592;8.858;2023-08-08T10:18:15;3.23;;;1.20;;
23123;SDS011;11731;48.592;8.858;2023-08-08T10:20:43;1.20;;;1.10;;
23123;SDS011;11731;48.592;8.858;2023-08-08T10:23:10;1.70;;;1.10;;
23123;SDS011;11731;48.592;8.858;2023-08-08T10:25:37;2.27;;;1.30;;
23123;SDS011;11731;48.592;8.858;2023-08-08T10:28:11;2.47;;;1.13;;
23123;SDS011;11731;48.592;8.858;2023-08-08T10:30:43;1.97;;;1.10;;
23123;SDS011;11731;48.592;8.858;2023-08-08T10:33:19;1.87;;;1.10;;
23123;SDS011;11731;48.592;8.858;2023-08-08T10:35:50;1.70;;;1.30;;
23123;SDS011;11731;48.592;8.858;2023-08-08T10:38:23;1.37;;;1.10;;
23123;SDS011;11731;48.592;8.858;2023-08-08T10:40:54;1.43;;;1.13;;
23123;SDS011;11731;48.592;8.858;2023-08-08T10:43:25;1.80;;;1.17;;
23123;SDS011;11731;48.592;8.858;2023-08-08T10:45:56;2.30;;;1.10;;
23123;SDS011;11731;48.592;8.858;2023-08-08T10:48:25;2.90;;;1.40;;
23123;SDS011;11731;48.592;8.858;2023-08-08T10:50:54;3.30;;;1.43;;
23123;SDS011;11731;48.592;8.858;2023-08-08T10:53:22;2.50;;;1.33;;
23123;SDS011;11731;48.592;8.858;2023-08-08T10:55:56;1.70;;;1.30;;
23123;SDS011;11731;48.592;8.858;2023-08-08T10:58:34;1.53;;;1.30;;
23123;SDS011;11731;48.592;8.858;2023-08-08T11:01:02;1.73;;;1.30;;
23123;SDS011;11731;48.592;8.858;2023-08-08T11:03:34;3.20;;;1.07;;
23123;SDS011;11731;48.592;8.858;2023-08-08T11:06:02;2.80;;;1.17;;
23123;SDS011;11731;48.592;8.858;2023-08-08T11:08:29;1.70;;;1.40;;
23123;SDS011;11731;48.592;8.858;2023-08-08T11:10:57;2.33;;;1.20;;
23123;SDS011;11731;48.592;8.858;2023-08-08T11:13:24;4.03;;;1.40;;
23123;SDS011;11731;48.592;8.858;2023-08-08T11:15:52;2.47;;;1.20;;
23123;SDS011;11731;48.592;8.858;2023-08-08T11:18:19;4.63;;;1.47;;
23123;SDS011;11731;48.592;8.858;2023-08-08T11:20:48;1.30;;;1.20;;
23123;SDS011;11731;48.592;8.858;2023-08-08T11:23:15;1.77;;;1.20;;
23123;SDS011;11731;48.592;8.858;2023-08-08T11:25:44;1.23;;;1.10;;
23123;SDS011;11731;48.592;8.858;2023-08-08T11:28:11;1.23;;;0.90;;
23123;SDS011;11731;48.592;8.858;2023-08-08T11:30:39;2.30;;;1.23;;
23123;SDS011;11731;48.592;8.858;2023-08-08T11:33:08;1.33;;;1.23;;
23123;SDS011;11731;48.592;8.858;2023-08-08T11:35:35;1.63;;;1.13;;
23123;SDS011;11731;48.592;8.858;2023-08-08T11:38:04;1.90;;;1.40;;
23123;SDS011;11731;48.592;8.858;2023-08-08T11:40:31;2.23;;;1.10;;
23123;SDS011;11731;48.592;8.858;2023-08-08T11:42:59;1.47;;;1.10;;
23123;SDS011;11731;48.592;8.858;2023-08-08T11:45:26;1.53;;;1.17;;
23123;SDS011;11731;48.592;8.858;2023-08-08T11:47:53;1.40;;;1.10;;
23123;SDS011;11731;48.592;8.858;2023-08-08T11:50:22;1.27;;;1.03;;
23123;SDS011;11731;48.592;8.858;2023-08-08T11:52:51;1.87;;;1.03;;
23123;SDS011;11731;48.592;8.858;2023-08-08T11:55:20;0.90;;;0.90;;
23123;SDS011;11731;48.592;8.858;2023-08-08T11:57:49;1.13;;;1.00;;
23123;SDS011;11731;48.592;8.858;2023-08-08T12:00:16;1.33;;;1.10;;
23123;SDS011;11731;48.592;8.858;2023-08-08T12:02:44;3.40;;;1.17;;
23123;SDS011;11731;48.592;8.858;2023-08-08T12:05:12;1.03;;;1.00;;
23123;SDS011;11731;48.592;8.858;2023-08-08T12:07:42;1.40;;;1.30;;
23123;SDS011;11731;48.592;8.858;2023-08-08T12:10:13;1.23;;;1.13;;
23123;SDS011;11731;48.592;8.858;2023-08-08T12:12:42;1.53;;;1.20;;
23123;SDS011;11731;48.592;8.858;2023-08-08T12:15:10;1.67;;;1.20;;
23123;SDS011;11731;48.592;8.858;2023-08-08T12:17:37;2.53;;;1.10;;
23123;SDS011;11731;48.592;8.858;2023-08-08T12:20:05;2.57;;;1.40;;
23123;SDS011;11731;48.592;8.858;2023-08-08T12:22:34;2.57;;;1.40;;
23123;SDS011;11731;48.592;8.858;2023-08-08T12:25:02;2.23;;;1.20;;
23123;SDS011;11731;48.592;8.858;2023-08-08T12:27:29;1.77;;;1.47;;
23123;SDS011;11731;48.592;8.858;2023-08-08T12:29:57;1.10;;;1.00;;
23123;SDS011;11731;48.592;8.858;2023-08-08T12:32:25;2.20;;;1.40;;
23123;SDS011;11731;48.592;8.858;2023-08-08T12:34:53;3.37;;;1.23;;
23123;SDS011;11731;48.592;8.858;2023-08-08T12:37:21;2.17;;;1.47;;
23123;SDS011;11731;48.592;8.858;2023-08-08T12:39:48;1.53;;;0.93;;
23123;SDS011;11731;48.592;8.858;2023-08-08T12:42:15;1.40;;;1.30;;
23123;SDS011;11731;48.592;8.858;2023-08-08T12:44:42;1.53;;;1.20;;
23123;SDS011;11731;48.592;8.858;2023-08-08T12:47:10;1.67;;;1.23;;
23123;SDS011;11731;48.592;8.858;2023-08-08T12:49:37;2.67;;;1.20;;
23123;SDS011;11731;48.592;8.858;2023-08-08T12:52:04;1.20;;;1.07;;
23123;SDS011;11731;48.592;8.858;2023-08-08T12:54:31;2.00;;;1.47;;
23123;SDS011;11731;48.592;8.858;2023-08-08T12:56:59;1.20;;;1.10;;
23123;SDS011;11731;48.592;8.858;2023-08-08T12:59:26;2.20;;;1.33;;
23123;SDS011;11731;48.592;8.858;2023-08-08T13:01:52;2.20;;;1.27;;
23123;SDS011;11731;48.592;8.858;2023-08-08T13:04:21;2.40;;;1.20;;
23123;SDS011;11731;48.592;8.858;2023-08-08T13:06:48;2.87;;;1.40;;
23123;SDS011;11731;48.592;8.858;2023-08-08T13:09:14;1.27;;;1.17;;
23123;SDS011;11731;48.592;8.858;2023-08-08T13:11:42;2.50;;;1.53;;
23123;SDS011;11731;48.592;8.858;2023-08-08T13:14:08;1.30;;;1.20;;
23123;SDS011;11731;48.592;8.858;2023-08-08T13:16:35;1.80;;;0.93;;
23123;SDS011;11731;48.592;8.858;2023-08-08T13:19:02;2.73;;;1.33;;
23123;SDS011;11731;48.592;8.858;2023-08-08T13:21:31;3.40;;;1.10;;
23123;SDS011;11731;48.592;8.858;2023-08-08T13:23:58;2.10;;;1.30;;
23123;SDS011;11731;48.592;8.858;2023-08-08T13:26:25;1.37;;;1.10;;
23123;SDS011;11731;48.592;8.858;2023-08-08T13:28:52;1.63;;;1.30;;
23123;SDS011;11731;48.592;8.858;2023-08-08T13:31:19;1.30;;;1.20;;
23123;SDS011;11731;48.592;8.858;2023-08-08T13:33:46;4.07;;;1.20;;
23123;SDS011;11731;48.592;8.858;2023-08-08T13:36:13;1.33;;;1.10;;
23123;SDS011;11731;48.592;8.858;2023-08-08T13:38:41;3.17;;;1.27;;
23123;SDS011;11731;48.592;8.858;2023-08-08T13:41:08;2.60;;;1.37;;
23123;SDS011;11731;48.592;8.858;2023-08-08T13:43:35;1.57;;;1.30;;
23123;SDS011;11731;48.592;8.858;2023-08-08T13:46:01;2.23;;;1.13;;
23123;SDS011;11731;48.592;8.858;2023-08-08T13:48:32;1.30;;;1.20;;
23123;SDS011;11731;48.592;8.858;2023-08-08T13:50:59;1.33;;;1.20;;
23123;SDS011;11731;48.592;8.858;2023-08-08T13:53:26;1.83;;;1.27;;
23123;SDS011;11731;48.592;8.858;2023-08-08T13:55:55;1.30;;;1.10;;
23123;SDS011;11731;48.592;8.858;2023-08-08T13:58:22;1.60;;;1.23;;
23123;SDS011;11731;48.592;8.858;2023-08-08T14:00:49;2.17;;;1.40;;
23123;SDS011;11731;48.592;8.858;2023-08-08T14:03:16;1.40;;;1.20;;
23123;SDS011;11731;48.592;8.858;2023-08-08T14:05:43;2.73;;;1.47;;
23123;SDS011;11731;48.592;8.858;2023-08-08T14:08:10;2.73;;;1.40;;
23123;SDS011;11731;48.592;8.858;2023-08-08T14:10:37;1.63;;;1.17;;
23123;SDS011;11731;48.592;8.858;2023-08-08T14:13:05;1.27;;;1.00;;
23123;SDS011;11731;48.592;8.858;2023-08-08T14:15:32;1.67;;;1.30;;
23123;SDS011;11731;48.592;8.858;2023-08-08T14:17:59;3.93;;;1.53;;
23123;SDS011;11731;48.592;8.858;2023-08-08T14:20:26;1.73;;;1.20;;
23123;SDS011;11731;48.592;8.858;2023-08-08T14:22:53;1.60;;;1.30;;
23123;SDS011;11731;48.592;8.858;2023-08-08T14:25:20;2.93;;;1.10;;
23123;SDS011;11731;48.592;8.858;2023-08-08T14:27:47;1.80;;;1.20;;
23123;SDS011;11731;48.592;8.858;2023-08-08T14:30:16;1.63;;;1.33;;
23123;SDS011;11731;48.592;8.858;2023-08-08T14:32:43;2.60;;;1.40;;
23123;SDS011;11731;48.592;8.858;2023-08-08T14:35:09;3.00;;;1.10;;
23123;SDS011;11731;48.592;8.858;2023-08-08T14:37:37;1.30;;;1.13;;
23123;SDS011;11731;48.592;8.858;2023-08-08T14:40:05;1.60;;;1.40;;
23123;SDS011;11731;48.592;8.858;2023-08-08T14:42:33;2.33;;;1.53;;
23123;SDS011;11731;48.592;8.858;2023-08-08T14:45:00;1.27;;;1.13;;
23123;SDS011;11731;48.592;8.858;2023-08-08T14:47:28;3.43;;;1.30;;
23123;SDS011;11731;48.592;8.858;2023-08-08T14:49:55;2.20;;;1.37;;